Flight Track Log - Related Links

Times and Time Zones

All times are in EST time to prevent confusion due to time zone crossing. See the FAO2960 flight status page for this flight to view local times or setup timezone preferences in your user account.

Time Position Orientation Groundspeed Altitude Reporting Facility
EST Latitude Longitude Course Direction KTS MPH feet Rate Location/Type
Tue 10:23:03 PM 27.0286 -81.9722 323° Northwest 204 235 3,300  Level Miami Center
Tue 10:24:00 PM 27.0953 -81.9728 360° North 219 252 4,800 2,150 Climbing Miami Center
Tue 10:25:03 PM 27.1744 -81.9786 356° North 255 293 7,600 2,656 Climbing Miami Center
Tue 10:26:02 PM 27.2556 -81.9822 358° North 275 316 10,200 1,983 Climbing Miami Center
Tue 10:27:00 PM 27.5759 -82.1194 323° Northwest  Level Estimated
Tue 10:27:01 PM 27.3475 -81.9839 359° North 301 346 11,500  Level Miami Center
Tue 10:28:03 PM 27.4472 -81.9908 356° North 333 383 13,900 2,350 Climbing Miami Center
Tue 10:29:01 PM 27.5661 -81.9936 359° North 363 418 16,200 1,916 Climbing Miami Center
Tue 10:30:02 PM 27.6764 -82.0011 357° North 385 443 17,700 1,361 Climbing Miami Center
Tue 10:31:00 PM 27.7806 -82.0058 358° North 409 471 18,900 1,442 Climbing Miami Center
Tue 10:32:36 PM 27.9844 -82.0325 353° North 441 507 21,400 1,577 Climbing Jacksonville Center
Tue 10:33:36 PM 28.0869 -82.1044 328° Northwest 430 495 23,000 1,350 Climbing Jacksonville Center
Tue 10:34:36 PM 28.1792 -82.1861 322° Northwest 416 479 24,100 1,400 Climbing Jacksonville Center
Tue 10:35:36 PM 28.2717 -82.2703 321° Northwest 421 484 25,800 1,450 Climbing Jacksonville Center
Tue 10:36:36 PM 28.3678 -82.3547 322° Northwest 426 490 27,000 1,300 Climbing Jacksonville Center
Tue 10:37:36 PM 28.4622 -82.4392 322° Northwest 426 490 28,400 1,300 Climbing Jacksonville Center
Tue 10:38:36 PM 28.5522 -82.5217 321° Northwest 426 490 29,600 1,000 Climbing Jacksonville Center
Tue 10:39:36 PM 28.6483 -82.6064 322° Northwest 431 496 30,400 900 Climbing Jacksonville Center
Tue 10:40:36 PM 28.7569 -82.6486 341° North 437 503 31,400 750 Climbing Jacksonville Center
Tue 10:41:36 PM 28.8925 -82.6436 North 450 518 31,900 300 Climbing Jacksonville Center
Tue 10:42:36 PM 29.0325 -82.6336 North 473 544 32,000 250 Climbing Jacksonville Center
Tue 10:43:36 PM 29.1703 -82.6239 North 487 560 32,400 500 Climbing Jacksonville Center
Tue 10:44:36 PM 29.3100 -82.6186 North 497 572 33,000 300 Climbing Jacksonville Center
Tue 10:45:36 PM 29.4478 -82.6136 North 491 565 33,000  Level Jacksonville Center
Tue 10:46:36 PM 29.5856 -82.6036 North 497 572 33,000  Level Jacksonville Center
Tue 10:47:36 PM 29.7381 -82.5958 North 497 572 33,000  Level Jacksonville Center
Tue 10:48:36 PM 29.8758 -82.5883 North 497 572 33,000  Level Jacksonville Center
Tue 10:49:36 PM 30.0156 -82.5831 North 497 572 33,000  Level Jacksonville Center
Tue 10:50:36 PM 30.1533 -82.5803 North 497 572 33,000  Level Jacksonville Center
Tue 10:51:36 PM 30.2767 -82.5728 North 497 572 33,000  Level Jacksonville Center
Tue 10:52:36 PM 30.4144 -82.5650 North 492 566 33,000  Level Jacksonville Center
Tue 10:53:36 PM 30.5522 -82.5572 North 492 566 33,000  Level Jacksonville Center
Tue 10:54:36 PM 30.6900 -82.5519 North 492 566 33,000  Level Jacksonville Center
Tue 10:55:36 PM 30.8214 -82.5683 354° North 492 566 33,000  Level Jacksonville Center
Tue 10:56:36 PM 30.9489 -82.5994 348° North 477 549 33,000  Level Jacksonville Center
Tue 10:57:36 PM 31.0722 -82.6306 348° North 465 535 33,000  Level Jacksonville Center
Tue 10:58:36 PM 31.1997 -82.6522 352° North 460 529 33,000  Level Jacksonville Center
Tue 10:59:36 PM 31.3228 -82.6833 348° North 455 524 33,000  Level Jacksonville Center
Tue 11:01:15 PM 31.5289 -82.7331 348° North 442 509 33,000  Level Atlanta Center
Tue 11:02:15 PM 31.6544 -82.7631 349° North 453 521 33,000  Level Atlanta Center
Tue 11:03:15 PM 31.7819 -82.7928 349° North 458 527 33,000  Level Atlanta Center
Tue 11:04:15 PM 31.9056 -82.8206 349° North 458 527 33,000  Level Atlanta Center
Tue 11:05:15 PM 32.0311 -82.8506 349° North 452 520 33,000  Level Atlanta Center
Tue 11:06:15 PM 32.1564 -82.8808 348° North 452 520 33,000  Level Atlanta Center
Tue 11:07:15 PM 32.2778 -82.9089 349° North 452 520 33,000  Level Atlanta Center
Tue 11:08:15 PM 32.4056 -82.9392 349° North 452 520 33,000  Level Atlanta Center
Tue 11:09:15 PM 32.5308 -82.9672 349° North 452 520 33,000  Level Atlanta Center
Tue 11:10:15 PM 32.6711 -83.0000 349° North 460 529 33,000 -150 Level Atlanta Center
Tue 11:11:15 PM 32.7778 -83.0233 350° North 460 529 32,700 -400 Descending Atlanta Center
Tue 11:12:15 PM 32.8989 -83.0542 348° North 448 516 32,200 -350 Descending Atlanta Center
Tue 11:13:15 PM 33.0225 -83.0850 348° North 448 516 32,000 -100 Descending Atlanta Center
Tue 11:14:15 PM 33.1564 -83.1208 347° North 453 521 32,000  Level Atlanta Center
Tue 11:15:15 PM 33.2797 -83.1517 348° North 448 516 32,000  Level Atlanta Center
Tue 11:16:15 PM 33.4008 -83.1803 349° North 448 516 32,000  Level Atlanta Center
Tue 11:17:15 PM 33.5222 -83.2067 350° North 448 516 32,000  Level Atlanta Center
Tue 11:18:15 PM 33.6433 -83.2353 349° North 448 516 32,000  Level Atlanta Center
Tue 11:19:15 PM 33.7625 -83.2642 349° North 448 516 32,000  Level Atlanta Center
Tue 11:20:15 PM 33.8817 -83.2931 349° North 441 507 32,000  Level Atlanta Center
Tue 11:21:15 PM 34.0031 -83.3197 350° North 441 507 32,000  Level Atlanta Center
Tue 11:22:15 PM 34.1219 -83.3486 349° North 435 501 32,000  Level Atlanta Center
Tue 11:23:15 PM 34.2411 -83.3806 348° North 433 498 32,000  Level Atlanta Center
Tue 11:24:15 PM 34.3583 -83.4097 348° North 428 493 32,000  Level Atlanta Center
Tue 11:25:15 PM 34.4772 -83.4367 349° North 428 493 32,000  Level Atlanta Center
Tue 11:26:15 PM 34.5839 -83.4611 349° North 433 498 32,000  Level Atlanta Center
Tue 11:27:15 PM 34.7008 -83.4931 347° North 428 493 32,000  Level Atlanta Center
Tue 11:28:15 PM 34.8178 -83.5253 347° North 428 493 32,000  Level Atlanta Center
Tue 11:29:15 PM 34.9475 -83.5572 349° North 428 493 32,000  Level Atlanta Center
Tue 11:30:15 PM 35.0664 -83.5872 348° North 428 493 32,000  Level Atlanta Center
Tue 11:31:15 PM 35.1856 -83.6169 348° North 428 493 32,000  Level Atlanta Center
Tue 11:32:15 PM 35.3025 -83.6494 347° North 428 493 32,000  Level Atlanta Center
Tue 11:33:15 PM 35.4214 -83.6769 349° North 428 493 32,000  Level Atlanta Center
Tue 11:34:15 PM 35.5383 -83.7069 348° North 428 493 32,000  Level Atlanta Center
Tue 11:35:15 PM 35.6575 -83.7347 349° North 428 493 32,000  Level Atlanta Center
Tue 11:36:15 PM 35.7764 -83.7647 348° North 433 498 32,000  Level Atlanta Center
Tue 11:37:47 PM 35.9472 -83.8086 348° North 434 499 32,000  Level Indianapolis Center
Tue 11:38:48 PM 36.0828 -83.8433 348° North 433 498 32,000  Level Indianapolis Center
Tue 11:39:49 PM 36.2000 -83.8736 348° North 433 498 32,000  Level Indianapolis Center
Tue 11:40:50 PM 36.3158 -83.9036 348° North 428 493 32,000  Level Indianapolis Center
Tue 11:41:51 PM 36.4317 -83.9336 348° North 427 491 32,000  Level Indianapolis Center
Tue 11:42:52 PM 36.5558 -83.9658 348° North 432 497 32,000  Level Indianapolis Center
Tue 11:43:53 PM 36.6739 -83.9969 348° North 430 495 32,000  Level Indianapolis Center
Tue 11:44:54 PM 36.7897 -84.0278 348° North 426 490 32,000  Level Indianapolis Center
Tue 11:45:55 PM 36.9053 -84.0578 348° North 422 486 32,000  Level Indianapolis Center
Tue 11:46:56 PM 37.0214 -84.0897 348° North 422 486 32,000  Level Indianapolis Center
Tue 11:47:57 PM 37.1386 -84.1197 348° North 426 490 32,000  Level Indianapolis Center
Tue 11:48:58 PM 37.2522 -84.1503 348° North 418 481 32,000  Level Indianapolis Center
Tue 11:49:59 PM 37.3669 -84.1814 348° North 418 481 32,000  Level Indianapolis Center
Tue 11:51:00 PM 37.4819 -84.2114 348° North 420 483 32,000  Level Indianapolis Center
Tue 11:52:02 PM 37.5978 -84.2431 348° North 422 486 32,000  Level Indianapolis Center
Tue 11:53:03 PM 37.7150 -84.2739 348° North 426 490 32,000  Level Indianapolis Center
Tue 11:54:04 PM 37.8306 -84.3053 348° North 424 488 32,000  Level Indianapolis Center
Tue 11:55:05 PM 37.9458 -84.3350 349° North 421 484 32,000  Level Indianapolis Center
Tue 11:56:06 PM 38.0597 -84.3667 348° North 419 482 32,000  Level Indianapolis Center
Tue 11:57:07 PM 38.1944 -84.4017 348° North 420 483 32,000  Level Indianapolis Center
Tue 11:58:08 PM 38.3083 -84.4325 348° North 418 481 32,000  Level Indianapolis Center
Tue 11:59:09 PM 38.4228 -84.4644 348° North 419 482 32,000  Level Indianapolis Center
Wed 12:00:10 AM 38.5367 -84.4958 348° North 417 480 32,000  Level Indianapolis Center
Wed 12:01:11 AM 38.6506 -84.5269 348° North 416 479 32,000  Level Indianapolis Center
Wed 12:02:12 AM 38.7547 -84.5556 348° North 409 471 32,000  Level Indianapolis Center
Wed 12:03:13 AM 38.8658 -84.5869 348° North 409 471 32,000  Level Indianapolis Center
Wed 12:04:14 AM 38.9922 -84.6197 349° North 412 474 32,000  Level Indianapolis Center
Wed 12:05:15 AM 39.1011 -84.6517 347° North 404 465 32,000  Level Indianapolis Center
Wed 12:06:16 AM 39.2108 -84.6814 348° North 403 464 32,000 -344 Level Indianapolis Center
Wed 12:07:17 AM 39.3200 -84.7119 348° North 402 463 31,300 -1,438 Descending Indianapolis Center
Wed 12:08:17 AM 39.4297 -84.7419 348° North 403 464 29,100 -2,132 Descending Indianapolis Center
Wed 12:09:18 AM 39.5417 -84.7728 348° North 406 467 27,000 -2,115 Descending Indianapolis Center
Wed 12:10:19 AM 39.6519 -84.8044 348° North 407 468 24,800 -2,164 Descending Indianapolis Center
Wed 12:11:20 AM 39.7542 -84.8331 348° North 386 444 22,600 -2,164 Descending Indianapolis Center
Wed 12:12:21 AM 39.8533 -84.8614 348° North 371 427 20,400 -2,164 Descending Indianapolis Center
Wed 12:13:22 AM 39.9514 -84.8900 347° North 365 420 18,200 -1,869 Descending Indianapolis Center
Wed 12:14:23 AM 40.0456 -84.9161 348° North 352 405 16,600 -1,721 Descending Indianapolis Center
Wed 12:15:24 AM 40.1331 -84.9417 347° North 334 384 14,700 -1,869 Descending Indianapolis Center
Wed 12:16:25 AM 40.2200 -84.9672 347° North 327 376 12,800 -1,686 Descending Indianapolis Center
Wed 12:17:25 AM 40.3261 -84.9961 348° North 326 375 11,300 -1,091 Descending Indianapolis Center
Wed 12:18:26 AM 40.4097 -85.0214 347° North 317 365 10,600 -885 Descending Indianapolis Center
Wed 12:19:27 AM 40.4825 -85.0425 348° North 286 329 9,500 -1,377 Descending Indianapolis Center
Wed 12:20:28 AM 40.5522 -85.0631 347° North 266 306 7,800 -1,574 Descending Indianapolis Center
Wed 12:21:29 AM 40.6236 -85.0842 347° North 264 304 6,300 -1,475 Descending Indianapolis Center
Wed 12:22:30 AM 40.7011 -85.1036 349° North 263 303 4,800 -1,370 Descending Indianapolis Center
Wed 12:23:36 AM 40.7744 -85.0950 North 254 292 3,400 -857 Descending Chicago Center
Wed 12:24:36 AM 40.8431 -85.0928 North 251 289 3,000 -198 Descending Chicago Center
Wed 12:25:37 AM 40.9031 -85.0856 North 231 266 3,000  Level Chicago Center
Wed 12:26:37 AM 40.9617 -85.0681 13° North 223 257 3,000  Level Chicago Center
Wed 12:27:38 AM 41.0117 -85.0567 10° North 204 235 3,000  Level Chicago Center
Wed 12:28:38 AM 41.0508 -85.0783 337° Northwest 184 212 3,000 -347 Level Chicago Center
Wed 12:29:39 AM 41.0372 -85.1144 243° Southwest 144 166 2,300 -595 Descending Chicago Center
Wed 12:30:39 AM 41.0161 -85.1422 225° Southwest 123 142 1,800 -298 Descending Chicago Center
Wed 12:31:40 AM 40.9939 -85.1703 224° Southwest 121 139 1,700 -98 Descending Chicago Center

Login

Don't have an account? Register now (free) for customized features, flight alerts, and more!